地図

経路データ

SID SEASON NUMBER BASIN SUBBASIN NAME ISO_TIME NATURE LAT LON WMO_WIND WMO_PRES WMO_AGENCY TRACK_TYPE DIST2LAND LANDFALL IFLAG USA_AGENCY USA_ATCF_ID USA_LAT USA_LON USA_RECORD USA_STATUS USA_WIND USA_PRES USA_SSHS USA_R34_NE USA_R34_SE USA_R34_SW USA_R34_NW USA_R50_NE USA_R50_SE USA_R50_SW USA_R50_NW USA_R64_NE USA_R64_SE USA_R64_SW USA_R64_NW USA_POCI USA_ROCI USA_RMW USA_EYE TOKYO_LAT TOKYO_LON TOKYO_GRADE TOKYO_WIND TOKYO_PRES TOKYO_R50_DIR TOKYO_R50_LONG TOKYO_R50_SHORT TOKYO_R30_DIR TOKYO_R30_LONG TOKYO_R30_SHORT TOKYO_LAND CMA_LAT CMA_LON CMA_CAT CMA_WIND CMA_PRES HKO_LAT HKO_LON HKO_CAT HKO_WIND HKO_PRES NEWDELHI_LAT NEWDELHI_LON NEWDELHI_GRADE NEWDELHI_WIND NEWDELHI_PRES NEWDELHI_CI NEWDELHI_DP NEWDELHI_POCI REUNION_LAT REUNION_LON REUNION_TYPE REUNION_WIND REUNION_PRES REUNION_TNUM REUNION_CI REUNION_RMW REUNION_R34_NE REUNION_R34_SE REUNION_R34_SW REUNION_R34_NW REUNION_R50_NE REUNION_R50_SE REUNION_R50_SW REUNION_R50_NW REUNION_R64_NE REUNION_R64_SE REUNION_R64_SW REUNION_R64_NW BOM_LAT BOM_LON BOM_TYPE BOM_WIND BOM_PRES BOM_TNUM BOM_CI BOM_RMW BOM_R34_NE BOM_R34_SE BOM_R34_SW BOM_R34_NW BOM_R50_NE BOM_R50_SE BOM_R50_SW BOM_R50_NW BOM_R64_NE BOM_R64_SE BOM_R64_SW BOM_R64_NW BOM_ROCI BOM_POCI BOM_EYE BOM_POS_METHOD BOM_PRES_METHOD NADI_LAT NADI_LON NADI_CAT NADI_WIND NADI_PRES WELLINGTON_LAT WELLINGTON_LON WELLINGTON_WIND WELLINGTON_PRES DS824_LAT DS824_LON DS824_STAGE DS824_WIND DS824_PRES TD9636_LAT TD9636_LON TD9636_STAGE TD9636_WIND TD9636_PRES TD9635_LAT TD9635_LON TD9635_WIND TD9635_PRES TD9635_ROCI NEUMANN_LAT NEUMANN_LON NEUMANN_CLASS NEUMANN_WIND NEUMANN_PRES MLC_LAT MLC_LON MLC_CLASS MLC_WIND MLC_PRES USA_GUST BOM_GUST BOM_GUST_PER REUNION_GUST REUNION_GUST_PER USA_SEAHGT USA_SEARAD_NE USA_SEARAD_SE USA_SEARAD_SW USA_SEARAD_NW STORM_SPEED STORM_DIR
1978032S21147 1978 10 SP EA NOT_NAMED 1978-02-01 00:00:00 TS -20.8000 146.600 main 0 0 O________OO___ jtwc_sh SH171978 -20.8000 146.600 -1 -20.8000 146.600 TC -20.8000 146.600 1 6 89
1978032S21147 1978 10 SP EA NOT_NAMED 1978-02-01 03:00:00 TS -20.7950 146.903 main 0 0 P________PP___ SH171978 -20.8126 146.907 -1 -20.8126 146.907 TC -20.7599 146.894 1 6 87
1978032S21147 1978 10 SP EA NOT_NAMED 1978-02-01 06:00:00 TS -20.7752 147.193 main 0 0 O________OP___ jtwc_sh SH171978 -20.8000 147.200 -1 -20.8000 147.200 TC -20.7256 147.181 1 5 83
1978032S21147 1978 10 SP EA NOT_NAMED 1978-02-01 09:00:00 TS -20.7345 147.461 main 0 0 P________PP___ SH171978 -20.7500 147.465 -1 -20.7500 147.465 TC -20.7035 147.452 1 5 81
1978032S21147 1978 10 SP EA NOT_NAMED 1978-02-01 12:00:00 TS -20.7000 147.700 main 0 0 O________OO___ jtwc_sh SH171978 -20.7000 147.700 -1 -20.7000 147.700 TC -20.7000 147.700 1 4 86
1978032S21147 1978 10 SP EA NOT_NAMED 1978-02-01 15:00:00 TS -20.7050 147.907 main 0 0 P________PP___ SH171978 -20.6999 147.900 -1 -20.6999 147.900 TC -20.7153 147.923 1 4 91
1978032S21147 1978 10 SP EA NOT_NAMED 1978-02-01 18:00:00 TS -20.7082 148.111 main 0 0 O________OP___ jtwc_sh SH171978 -20.7000 148.100 -1 -20.7000 148.100 TC -20.7245 148.134 1 4 87
1978032S21147 1978 10 SP EA NOT_NAMED 1978-02-01 21:00:00 TS -20.6855 148.341 main 0 0 P________PP___ SH171978 -20.6800 148.335 -1 -20.6800 148.335 TC -20.6965 148.354 1 5 77
1978032S21147 1978 10 SP EA NOT_NAMED 1978-02-02 00:00:00 TS -20.6000 148.600 main 0 0 O________OO___ jtwc_sh SH171978 -20.6000 148.600 -1 -20.6000 148.600 TC -20.6000 148.600 1 6 63
1978032S21147 1978 10 SP EA NOT_NAMED 1978-02-02 03:00:00 TS -20.4248 148.883 main 10 10 P________PP___ SH171978 -20.4449 148.885 -1 -20.4449 148.885 TC -20.3845 148.881 1 7 52
1978032S21147 1978 10 SP EA NOT_NAMED 1978-02-02 06:00:00 TS -20.1674 149.197 main 43 43 O________OP___ jtwc_sh SH171978 -20.2000 149.200 -1 -20.2000 149.200 TC -20.1022 149.191 1 9 46
1978032S21147 1978 10 SP EA NOT_NAMED 1978-02-02 09:00:00 TS -19.8362 149.534 main 92 92 P________PP___ SH171978 -19.8574 149.535 -1 -19.8574 149.535 TC -19.7938 149.530 1 9 45
1978032S21147 1978 10 SP EA NOT_NAMED 1978-02-02 12:00:00 TS -19.5000 149.900 main 145 145 O________OO___ jtwc_sh SH171978 -19.5000 149.900 -1 -19.5000 149.900 TC -19.5000 149.900 1 9 49
1978032S21147 1978 10 SP EA NOT_NAMED 1978-02-02 15:00:00 TS -19.2204 150.282 main 199 199 P________PP___ SH171978 -19.2199 150.285 -1 -19.2199 150.285 TC -19.2212 150.277 1 9 56
1978032S21147 1978 10 SP EA NOT_NAMED 1978-02-02 18:00:00 TS -18.9906 150.695 main 246 246 O________OP___ jtwc_sh SH171978 -19.0000 150.700 -1 -19.0000 150.700 TC -18.9719 150.684 1 9 62
1978032S21147 1978 10 SP EA NOT_NAMED 1978-02-02 21:00:00 TS -18.7988 151.126 main 293 293 P________PP___ SH171978 -18.8048 151.128 -1 -18.8048 151.128 TC -18.7867 151.124 1 9 71
1978032S21147 1978 10 SP EA NOT_NAMED 1978-02-03 00:00:00 TS -18.7000 151.600 main 343 343 O________OO___ jtwc_sh SH171978 -18.7000 151.600 -1 -18.7000 151.600 TC -18.7000 151.600 1 10 84
1978032S21147 1978 10 SP EA NOT_NAMED 1978-02-03 03:00:00 TS -18.7031 152.133 main 389 389 P________PP___ SH171978 -18.6900 152.135 -1 -18.6900 152.135 TC -18.7294 152.129 1 10 97
1978032S21147 1978 10 SP EA NOT_NAMED 1978-02-03 06:00:00 TS -18.8193 152.697 main 440 440 O________OP___ jtwc_sh SH171978 -18.8000 152.700 -1 -18.8000 152.700 TC -18.8580 152.692 1 11 107
1978032S21147 1978 10 SP EA NOT_NAMED 1978-02-03 09:00:00 TS -19.0324 153.258 main 466 457 P________PP___ SH171978 -19.0199 153.257 -1 -19.0199 153.257 TC -19.0575 153.258 1 11 115
1978032S21147 1978 10 SP EA NOT_NAMED 1978-02-03 12:00:00 TS -19.3000 153.800 main 473 472 O________OO___ jtwc_sh SH171978 -19.3000 153.800 -1 -19.3000 153.800 TC -19.3000 153.800 2 11 117
1978032S21147 1978 10 SP EA NOT_NAMED 1978-02-03 15:00:00 TS -19.5358 154.316 main 494 494 P________PP___ SH171978 -19.5424 154.323 -1 -19.5424 154.323 TC -19.5225 154.303 2 11 118
1978032S21147 1978 10 SP EA NOT_NAMED 1978-02-03 18:00:00 TS -19.7941 154.792 main 512 512 O________OP___ jtwc_sh SH171978 -19.8000 154.800 -1 -19.8000 154.800 TC -19.7822 154.775 2 10 123
1978032S21147 1978 10 SP EA NOT_NAMED 1978-02-03 21:00:00 TS -20.0818 155.218 main 528 528 P________PP___ SH171978 -20.0848 155.223 -1 -20.0848 155.223 TC -20.0758 155.210 2 10 129
1978032S21147 1978 10 SP EA NOT_NAMED 1978-02-04 00:00:00 TS -20.4000 155.600 main 545 530 O________OO___ jtwc_sh SH171978 -20.4000 155.600 -1 -20.4000 155.600 TC -20.4000 155.600 2 10 133
1978032S21147 1978 10 SP EA NOT_NAMED 1978-02-04 03:00:00 TS -20.7386 155.970 main 535 515 P________PP___ SH171978 -20.7350 155.973 -1 -20.7350 155.973 TC -20.7459 155.964 2 10 137
1978032S21147 1978 10 SP EA NOT_NAMED 1978-02-04 06:00:00 TS -21.1065 156.294 main 515 492 O________OP___ jtwc_sh SH171978 -21.1000 156.300 -1 -21.1000 156.300 TC -21.1196 156.283 2 10 144
1978032S21147 1978 10 SP EA NOT_NAMED 1978-02-04 09:00:00 TS -21.5028 156.574 main 499 482 P________PP___ SH171978 -21.4999 156.580 -1 -21.4999 156.580 TC -21.5085 156.560 2 9 149
1978032S21147 1978 10 SP EA NOT_NAMED 1978-02-04 12:00:00 TS -21.9000 156.800 main 482 468 O________OO___ jtwc_sh SH171978 -21.9000 156.800 -1 -21.9000 156.800 TC -21.9000 156.800 2 8 153
1978032S21147 1978 10 SP EA NOT_NAMED 1978-02-04 15:00:00 TS -22.2460 156.976 main 476 458 P________PP___ SH171978 -22.2499 156.958 -1 -22.2499 156.958 TC -22.2382 157.012 2 8 156
1978032S21147 1978 10 SP EA NOT_NAMED 1978-02-04 18:00:00 TS -22.5941 157.130 main 458 455 O________OP___ jtwc_sh SH171978 -22.6000 157.100 -1 -22.6000 157.100 TC -22.5822 157.189 2 8 156
1978032S21147 1978 10 SP EA NOT_NAMED 1978-02-04 21:00:00 TS -22.9667 157.316 main 453 452 P________PP___ SH171978 -22.9700 157.300 -1 -22.9700 157.300 TC -22.9601 157.346 2 9 157
1978032S21147 1978 10 SP EA NOT_NAMED 1978-02-05 00:00:00 TS -23.4000 157.500 main 452 442 O________OO___ jtwc_sh SH171978 -23.4000 157.500 -1 -23.4000 157.500 TC -23.4000 157.500 2 10 161
1978032S21147 1978 10 SP EA NOT_NAMED 1978-02-05 03:00:00 TS -23.9228 157.666 main 451 443 P________PP___ SH171978 -23.9124 157.650 -1 -23.9124 157.650 TC -23.9436 157.699 2 12 165
1978032S21147 1978 10 SP EA NOT_NAMED 1978-02-05 06:00:00 TS -24.5159 157.831 main 447 446 O________OP___ jtwc_sh SH171978 -24.5000 157.800 -1 -24.5000 157.800 TC -24.5477 157.894 2 13 165
1978032S21147 1978 10 SP EA NOT_NAMED 1978-02-05 09:00:00 TS -25.1594 158.032 main 463 463 P________PP___ SH171978 -25.1501 158.015 -1 -25.1501 158.015 TC -25.1780 158.067 2 13 165
1978032S21147 1978 10 SP EA NOT_NAMED 1978-02-05 12:00:00 TS -25.8000 158.200 main 489 489 O________OO___ jtwc_sh SH171978 -25.8000 158.200 -1 -25.8000 158.200 TC -25.8000 158.200 1 12 170
1978032S21147 1978 10 SP EA NOT_NAMED 1978-02-05 15:00:00 TS -26.3647 158.275 main 505 485 P________PP___ SH171978 -26.3649 158.280 -1 -26.3649 158.280 TC -26.3642 158.265 1 11 175
1978032S21147 1978 10 SP EA NOT_NAMED 1978-02-05 18:00:00 TS -26.9049 158.296 main 485 470 O________OP___ jtwc_sh SH171978 -26.9000 158.300 -1 -26.9000 158.300 TC -26.9148 158.289 1 11 0
1978032S21147 1978 10 SP EA NOT_NAMED 1978-02-05 21:00:00 TS -27.4527 158.298 main 468 461 P________PP___ SH171978 -27.4500 158.300 -1 -27.4500 158.300 TC -27.4580 158.293 1 11 0
1978032S21147 1978 10 SP EA NOT_NAMED 1978-02-06 00:00:00 TS -28.0000 158.300 main 461 458 O________OO___ jtwc_sh SH171978 -28.0000 158.300 -1 -28.0000 158.300 TC -28.0000 158.300 1 11 178
1978032S21147 1978 10 SP EA NOT_NAMED 1978-02-06 03:00:00 TS -28.5662 158.337 main 458 457 P________PP___ SH171978 -28.5500 158.342 -1 -28.5500 158.342 TC -28.5986 158.327 1 11 176
1978032S21147 1978 10 SP EA NOT_NAMED 1978-02-06 06:00:00 TS -29.1299 158.388 main 466 466 O________OP___ jtwc_sh SH171978 -29.1000 158.400 -1 -29.1000 158.400 TC -29.1898 158.363 1 11 175
1978032S21147 1978 10 SP EA NOT_NAMED 1978-02-06 09:00:00 TS -29.7037 158.434 main 473 473 P________PP___ SH171978 -29.6875 158.443 -1 -29.6875 158.443 TC -29.7361 158.417 1 11 175
1978032S21147 1978 10 SP EA NOT_NAMED 1978-02-06 12:00:00 TS -30.2000 158.500 main 495 495 O________OO___ jtwc_sh SH171978 -30.2000 158.500 -1 -30.2000 158.500 TC -30.2000 158.500 1 8 172
1978032S21147 1978 10 SP EA NOT_NAMED 1978-02-06 15:00:00 TS -30.5386 158.570 main 512 512 P________PP___ SH171978 -30.5524 158.578 -1 -30.5524 158.578 TC -30.5109 158.554 1 6 165
1978032S21147 1978 10 SP EA NOT_NAMED 1978-02-06 18:00:00 TS -30.7811 158.682 main 527 527 O________OP___ jtwc_sh SH171978 -30.8000 158.700 -1 -30.8000 158.700 TC -30.7433 158.646 1 5 152
1978032S21147 1978 10 SP EA NOT_NAMED 1978-02-06 21:00:00 TS -30.9795 158.837 main 540 540 P________PP___ SH171978 -30.9923 158.848 -1 -30.9923 158.848 TC -30.9541 158.815 1 6 139
1978032S21147 1978 10 SP EA NOT_NAMED 1978-02-07 00:00:00 TS -31.2000 159.100 main 570 570 O________OO___ jtwc_sh SH171978 -31.2000 159.100 -1 -31.2000 159.100 TC -31.2000 159.100 1 8 134
1978032S21147 1978 10 SP EA NOT_NAMED 1978-02-07 03:00:00 TS -31.5160 159.494 main 608 608 P________PP___ SH171978 -31.5122 159.476 -1 -31.5122 159.476 TC -31.5237 159.530 1 11 132
1978032S21147 1978 10 SP MM NOT_NAMED 1978-02-07 06:00:00 TS -31.9048 160.027 main 659 659 O________OP___ jtwc_sh SH171978 -31.9000 160.000 -1 -31.9000 160.000 TC -31.9143 160.082 1 13 129
1978032S21147 1978 10 SP MM NOT_NAMED 1978-02-07 09:00:00 TS -32.3416 160.680 main 730 730 P________PP___ SH171978 -32.3385 160.661 -1 -32.3385 160.661 TC -32.3477 160.718 1 15 128
1978032S21147 1978 10 SP MM NOT_NAMED 1978-02-07 12:00:00 TS -32.8000 161.400 main 804 O________OO___ jtwc_sh SH171978 -32.8000 161.400 -1 -32.8000 161.400 TC -32.8000 161.400 6 15 127

デジタル台風データ・検索

IBTrACS Databaseについて

本データベースは、米国NOAAが公開する1842年以降の世界の熱帯低気圧のベストトラックデータアーカイブInternational Best Track Archive for Climate Stewardship (IBTrACS)を、ウェブで閲覧しやすい形式に変換したものです。

最終更新日:2021-12-03